createdAt,value
2017-06-16T00:00:16.258Z,0
2017-06-16T00:00:42.369Z,0
2017-06-16T00:01:08.592Z,0
2017-06-16T00:01:34.684Z,0
2017-06-16T00:02:00.786Z,0
2017-06-16T00:02:26.885Z,0
2017-06-16T00:02:52.992Z,0
2017-06-16T00:03:19.111Z,0
2017-06-16T00:03:45.209Z,0
2017-06-16T00:04:11.316Z,0
2017-06-16T00:04:37.411Z,0
2017-06-16T00:05:03.501Z,0
2017-06-16T00:05:29.664Z,0
2017-06-16T00:05:55.761Z,0
2017-06-16T00:06:21.854Z,0
2017-06-16T00:06:47.983Z,0
2017-06-16T00:07:14.084Z,0
2017-06-16T00:07:40.184Z,0
2017-06-16T00:08:06.280Z,0
2017-06-16T00:08:32.369Z,0
2017-06-16T00:08:58.508Z,0
2017-06-16T00:09:24.671Z,0
2017-06-16T00:09:50.751Z,0
2017-06-16T00:10:16.858Z,0
2017-06-16T00:10:42.988Z,0
2017-06-16T00:11:09.051Z,0
2017-06-16T00:11:35.170Z,0
2017-06-16T00:12:01.278Z,0
2017-06-16T00:12:27.367Z,0
2017-06-16T00:12:53.469Z,0
2017-06-16T00:13:19.563Z,0
2017-06-16T00:13:45.699Z,0
2017-06-16T00:14:11.799Z,0
2017-06-16T00:14:37.923Z,0
2017-06-16T00:15:04.036Z,0
2017-06-16T00:15:30.142Z,0
2017-06-16T00:15:56.232Z,0
2017-06-16T00:16:22.335Z,0
2017-06-16T00:16:48.439Z,0
2017-06-16T00:17:14.530Z,0
2017-06-16T00:17:40.958Z,0
2017-06-16T00:18:07.117Z,0
2017-06-16T00:18:33.265Z,0
2017-06-16T00:18:59.347Z,0
2017-06-16T00:19:25.436Z,0
2017-06-16T00:19:51.640Z,0
2017-06-16T00:20:17.779Z,0
2017-06-16T00:20:43.916Z,0
2017-06-16T00:21:10.069Z,0
2017-06-16T00:21:36.192Z,0
2017-06-16T00:22:02.310Z,0
2017-06-16T00:22:28.451Z,0
2017-06-16T00:22:54.560Z,0
2017-06-16T00:23:20.657Z,0
2017-06-16T00:23:46.774Z,0
2017-06-16T00:24:12.901Z,0
2017-06-16T00:24:38.995Z,0
2017-06-16T00:25:05.103Z,0
2017-06-16T00:25:31.196Z,0
2017-06-16T00:25:57.287Z,0
2017-06-16T00:26:23.398Z,0
2017-06-16T00:26:49.496Z,0
2017-06-16T00:27:15.586Z,0
2017-06-16T00:27:41.693Z,0
2017-06-16T00:28:07.823Z,0
2017-06-16T00:28:33.915Z,0
2017-06-16T00:29:00.042Z,0
2017-06-16T00:29:26.149Z,0
2017-06-16T00:29:52.270Z,0
2017-06-16T00:30:18.365Z,0
2017-06-16T00:30:44.456Z,0
2017-06-16T00:31:10.588Z,0
2017-06-16T00:31:36.688Z,0
2017-06-16T00:32:02.852Z,0
2017-06-16T00:32:28.956Z,0
2017-06-16T00:32:55.089Z,0
2017-06-16T00:33:21.180Z,0
2017-06-16T00:33:47.306Z,0
2017-06-16T00:34:13.411Z,0
2017-06-16T00:34:39.500Z,0
2017-06-16T00:35:05.622Z,0
2017-06-16T00:35:31.720Z,0
2017-06-16T00:35:57.824Z,0
2017-06-16T00:36:23.956Z,0
2017-06-16T00:36:50.042Z,0
2017-06-16T00:37:16.142Z,0
2017-06-16T00:37:42.276Z,0
2017-06-16T00:38:08.366Z,0
2017-06-16T00:38:34.462Z,0
2017-06-16T00:39:00.596Z,0
2017-06-16T00:39:26.692Z,0
2017-06-16T00:39:52.782Z,0
2017-06-16T00:40:18.918Z,0
2017-06-16T00:40:45.015Z,0
2017-06-16T00:41:11.131Z,0
2017-06-16T00:41:37.237Z,0
2017-06-16T00:42:03.340Z,0
2017-06-16T00:42:29.431Z,0
2017-06-16T00:42:55.533Z,0
2017-06-16T00:43:21.639Z,0
2017-06-16T00:43:47.753Z,0
2017-06-16T00:44:13.879Z,0
2017-06-16T00:44:39.987Z,0
2017-06-16T00:45:06.102Z,0
2017-06-16T00:45:32.202Z,0
2017-06-16T00:45:58.309Z,0
2017-06-16T00:46:24.405Z,0
2017-06-16T00:46:50.525Z,0
2017-06-16T00:47:16.628Z,0
2017-06-16T00:47:42.755Z,0
2017-06-16T00:48:08.891Z,0
2017-06-16T00:48:35.007Z,0
2017-06-16T00:49:01.131Z,0
2017-06-16T00:49:27.267Z,0
2017-06-16T00:49:53.389Z,0
2017-06-16T00:50:19.482Z,0
2017-06-16T00:50:45.591Z,0
2017-06-16T00:51:11.712Z,0
2017-06-16T00:51:37.805Z,0
2017-06-16T00:52:03.911Z,0
2017-06-16T00:52:30.004Z,0
2017-06-16T00:52:56.110Z,0
2017-06-16T00:53:22.205Z,0
2017-06-16T00:53:48.296Z,0
2017-06-16T00:54:14.408Z,0
2017-06-16T00:54:40.533Z,0
2017-06-16T00:55:06.647Z,0
2017-06-16T00:55:32.782Z,0
2017-06-16T00:55:58.882Z,0
2017-06-16T00:56:24.973Z,0
2017-06-16T00:56:51.097Z,0
2017-06-16T00:57:17.204Z,0
2017-06-16T00:57:43.323Z,0
2017-06-16T00:58:09.422Z,0
2017-06-16T00:58:35.512Z,0
2017-06-16T00:59:01.648Z,0
2017-06-16T00:59:27.776Z,0
2017-06-16T00:59:53.891Z,0
2017-06-16T01:00:19.995Z,0
2017-06-16T01:00:46.101Z,0
2017-06-16T01:01:12.217Z,0
2017-06-16T01:01:38.366Z,0
2017-06-16T01:02:04.472Z,0
2017-06-16T01:02:30.589Z,0
2017-06-16T01:02:56.710Z,0
2017-06-16T01:03:22.807Z,0
2017-06-16T01:03:48.910Z,0
2017-06-16T01:04:15.019Z,0
2017-06-16T01:04:41.155Z,0
2017-06-16T01:05:07.257Z,0
2017-06-16T01:05:33.407Z,0
2017-06-16T01:05:59.479Z,0
2017-06-16T01:06:25.577Z,0
2017-06-16T01:06:51.708Z,0
2017-06-16T01:07:17.831Z,0
2017-06-16T01:07:43.921Z,0
2017-06-16T01:08:10.085Z,0
2017-06-16T01:08:36.183Z,0
2017-06-16T01:09:02.314Z,0
2017-06-16T01:09:28.429Z,0
2017-06-16T01:09:54.524Z,0
2017-06-16T01:10:20.659Z,0
2017-06-16T01:10:46.758Z,0
2017-06-16T01:11:12.848Z,0
2017-06-16T01:11:38.986Z,0
2017-06-16T01:12:05.111Z,0
2017-06-16T01:12:31.207Z,0
2017-06-16T01:12:57.332Z,0
2017-06-16T01:13:23.461Z,0
2017-06-16T01:13:49.554Z,0
2017-06-16T01:14:15.655Z,0
2017-06-16T01:14:41.748Z,0
2017-06-16T01:15:07.858Z,0
2017-06-16T01:15:33.956Z,0
2017-06-16T01:16:00.047Z,0
2017-06-16T01:16:26.153Z,0
2017-06-16T01:16:52.254Z,0
2017-06-16T01:17:18.345Z,0
2017-06-16T01:17:44.474Z,0
2017-06-16T01:18:10.605Z,0
2017-06-16T01:18:36.693Z,0
2017-06-16T01:19:02.792Z,0
2017-06-16T01:19:28.927Z,0
2017-06-16T01:19:55.019Z,0
2017-06-16T01:20:21.121Z,0
2017-06-16T01:20:47.214Z,0
2017-06-16T01:21:13.341Z,0
2017-06-16T01:21:39.448Z,0
2017-06-16T01:22:05.535Z,0
2017-06-16T01:22:31.635Z,0
2017-06-16T01:22:57.770Z,0
2017-06-16T01:23:23.862Z,0
2017-06-16T01:23:49.959Z,0
2017-06-16T01:24:16.066Z,0
2017-06-16T01:24:42.160Z,0
2017-06-16T01:25:08.275Z,0
2017-06-16T01:25:34.387Z,0
2017-06-16T01:26:00.540Z,0
2017-06-16T01:26:26.634Z,0
2017-06-16T01:26:52.740Z,0
2017-06-16T01:27:18.894Z,0
2017-06-16T01:27:44.987Z,0
2017-06-16T01:28:11.090Z,0
2017-06-16T01:28:37.222Z,0
2017-06-16T01:29:03.309Z,0
2017-06-16T01:29:29.433Z,0
2017-06-16T01:29:55.541Z,0
2017-06-16T01:30:21.657Z,0
2017-06-16T01:30:47.755Z,0
2017-06-16T01:31:13.879Z,0
2017-06-16T01:31:39.984Z,0
2017-06-16T01:32:06.122Z,0
2017-06-16T01:32:32.257Z,0
2017-06-16T01:32:58.357Z,0
2017-06-16T01:33:24.490Z,0
2017-06-16T01:33:50.581Z,0
2017-06-16T01:34:16.680Z,0
2017-06-16T01:34:42.784Z,0
2017-06-16T01:35:08.877Z,0
2017-06-16T01:35:34.967Z,0
2017-06-16T01:36:01.077Z,0
2017-06-16T01:36:27.175Z,0
2017-06-16T01:36:53.303Z,0
2017-06-16T01:37:19.444Z,0
2017-06-16T01:37:45.544Z,0
2017-06-16T01:38:11.679Z,0
2017-06-16T01:38:37.773Z,0
2017-06-16T01:39:03.891Z,0
2017-06-16T01:39:30.029Z,0
2017-06-16T01:39:56.155Z,0
2017-06-16T01:40:22.271Z,0
2017-06-16T01:40:48.377Z,0
2017-06-16T01:41:14.477Z,0
2017-06-16T01:41:40.567Z,0
2017-06-16T01:42:06.695Z,0
2017-06-16T01:42:32.813Z,0
2017-06-16T01:42:58.923Z,0
2017-06-16T01:43:25.049Z,0
2017-06-16T01:43:51.166Z,0
2017-06-16T01:44:17.295Z,0
2017-06-16T01:44:43.396Z,0
2017-06-16T01:45:09.488Z,0
2017-06-16T01:45:35.592Z,0
2017-06-16T01:46:01.728Z,0
2017-06-16T01:46:27.840Z,0
2017-06-16T01:46:53.941Z,0
2017-06-16T01:47:20.134Z,0
2017-06-16T01:47:46.219Z,0
2017-06-16T01:48:12.315Z,0
2017-06-16T01:48:38.448Z,0
2017-06-16T01:49:04.569Z,0
2017-06-16T01:49:30.661Z,0
2017-06-16T01:49:56.778Z,0
2017-06-16T01:50:22.932Z,0
2017-06-16T01:50:48.993Z,0
2017-06-16T01:51:15.125Z,0
2017-06-16T01:51:41.226Z,0
2017-06-16T01:52:07.318Z,0
2017-06-16T01:52:33.446Z,0
2017-06-16T01:52:59.553Z,0
2017-06-16T01:53:25.670Z,0
2017-06-16T01:53:51.824Z,0
2017-06-16T01:54:17.915Z,0
2017-06-16T01:54:44.022Z,0
2017-06-16T01:55:10.122Z,0
2017-06-16T01:55:36.214Z,0
2017-06-16T01:56:02.318Z,0
2017-06-16T01:56:28.423Z,0
2017-06-16T01:56:54.511Z,0
2017-06-16T01:57:20.613Z,0
2017-06-16T01:57:46.727Z,0
2017-06-16T01:58:12.818Z,0
2017-06-16T01:58:38.914Z,0
2017-06-16T01:59:05.012Z,0
2017-06-16T01:59:31.116Z,0
2017-06-16T01:59:57.223Z,0
2017-06-16T02:00:23.311Z,0
2017-06-16T02:00:49.411Z,0
2017-06-16T02:01:15.517Z,0
2017-06-16T02:01:41.610Z,0
2017-06-16T02:02:07.733Z,0
2017-06-16T02:02:33.863Z,0
2017-06-16T02:02:59.930Z,0
2017-06-16T02:03:26.042Z,0
2017-06-16T02:03:52.151Z,0
2017-06-16T02:04:18.246Z,0
2017-06-16T02:04:44.351Z,0
2017-06-16T02:05:10.442Z,0
2017-06-16T02:05:36.563Z,0
2017-06-16T02:06:02.670Z,0
2017-06-16T02:06:28.765Z,0
2017-06-16T02:06:54.881Z,0
2017-06-16T02:07:20.990Z,0
2017-06-16T02:07:47.086Z,0
2017-06-16T02:08:13.178Z,0
2017-06-16T02:08:39.284Z,0
2017-06-16T02:09:05.413Z,0
2017-06-16T02:09:31.503Z,0
2017-06-16T02:09:57.606Z,0
2017-06-16T02:10:23.712Z,0
2017-06-16T02:10:49.798Z,0
2017-06-16T02:11:15.897Z,0
2017-06-16T02:11:42.032Z,0
2017-06-16T02:12:08.174Z,0
2017-06-16T02:12:34.270Z,0
2017-06-16T02:13:00.382Z,0
2017-06-16T02:13:26.501Z,0
2017-06-16T02:13:52.618Z,0
2017-06-16T02:14:18.729Z,0
2017-06-16T02:14:44.825Z,0
2017-06-16T02:15:10.918Z,0
2017-06-16T02:15:37.047Z,0
2017-06-16T02:16:03.169Z,0
2017-06-16T02:16:29.276Z,0
2017-06-16T02:16:55.394Z,0
2017-06-16T02:17:21.483Z,0
2017-06-16T02:17:47.593Z,0
2017-06-16T02:18:13.687Z,0
2017-06-16T02:18:39.778Z,0
2017-06-16T02:19:05.912Z,0
2017-06-16T02:19:32.013Z,0
2017-06-16T02:19:58.128Z,0
2017-06-16T02:20:24.258Z,0
2017-06-16T02:20:50.365Z,0
2017-06-16T02:21:16.459Z,0
2017-06-16T02:21:42.557Z,0
2017-06-16T02:22:08.649Z,0
2017-06-16T02:22:34.781Z,0
2017-06-16T02:23:00.910Z,0
2017-06-16T02:23:27.002Z,0
2017-06-16T02:23:53.129Z,4
2017-06-16T02:24:19.236Z,4
2017-06-16T02:24:45.324Z,4
2017-06-16T02:25:11.448Z,4
2017-06-16T02:25:37.556Z,4
2017-06-16T02:26:03.648Z,4
2017-06-16T02:26:29.747Z,4
2017-06-16T02:26:55.846Z,4
2017-06-16T02:27:21.946Z,4
2017-06-16T02:27:48.052Z,4
2017-06-16T02:28:14.140Z,0
2017-06-16T02:28:40.291Z,4
2017-06-16T02:29:06.423Z,4
2017-06-16T02:29:32.538Z,4
2017-06-16T02:29:58.635Z,4
2017-06-16T02:30:24.768Z,4
2017-06-16T02:30:50.863Z,4
2017-06-16T02:31:16.953Z,8
2017-06-16T02:31:43.061Z,8
2017-06-16T02:32:09.160Z,4
2017-06-16T02:32:35.268Z,4
2017-06-16T02:33:01.359Z,8
2017-06-16T02:33:27.504Z,8
2017-06-16T02:33:53.610Z,8
2017-06-16T02:34:19.705Z,8
2017-06-16T02:34:45.821Z,8
2017-06-16T02:35:11.930Z,8
2017-06-16T02:35:38.028Z,8
2017-06-16T02:36:04.121Z,8
2017-06-16T02:36:30.248Z,12
2017-06-16T02:36:56.352Z,12
2017-06-16T02:37:22.442Z,8
2017-06-16T02:37:48.573Z,12
2017-06-16T02:38:14.688Z,12
2017-06-16T02:38:40.796Z,12
2017-06-16T02:39:06.949Z,12
2017-06-16T02:39:33.042Z,12
2017-06-16T02:39:59.147Z,16
2017-06-16T02:40:25.248Z,16
2017-06-16T02:40:51.337Z,16
2017-06-16T02:41:17.465Z,16
2017-06-16T02:41:43.574Z,16
2017-06-16T02:42:09.663Z,20
2017-06-16T02:42:35.785Z,20
2017-06-16T02:43:01.948Z,20
2017-06-16T02:43:28.062Z,20
2017-06-16T02:43:54.166Z,24
2017-06-16T02:44:20.280Z,20
2017-06-16T02:44:46.383Z,24
2017-06-16T02:45:12.489Z,24
2017-06-16T02:45:38.601Z,24
2017-06-16T02:46:04.703Z,28
2017-06-16T02:46:30.810Z,28
2017-06-16T02:46:56.901Z,32
2017-06-16T02:47:22.998Z,32
2017-06-16T02:47:49.104Z,32
2017-06-16T02:48:15.198Z,32
2017-06-16T02:48:41.288Z,36
2017-06-16T02:49:07.418Z,40
2017-06-16T02:49:33.516Z,40
2017-06-16T02:49:59.624Z,44
2017-06-16T02:50:25.714Z,44
2017-06-16T02:50:51.812Z,48
2017-06-16T02:51:17.917Z,52
2017-06-16T02:51:44.014Z,52
2017-06-16T02:52:10.128Z,56
2017-06-16T02:52:36.263Z,60
2017-06-16T02:53:02.389Z,60
2017-06-16T02:53:28.504Z,64
2017-06-16T02:53:54.610Z,68
2017-06-16T02:54:20.738Z,72
2017-06-16T02:54:46.853Z,76
2017-06-16T02:55:12.980Z,80
2017-06-16T02:55:39.087Z,84
2017-06-16T02:56:05.200Z,88
2017-06-16T02:56:31.301Z,92
2017-06-16T02:56:57.407Z,100
2017-06-16T02:57:23.497Z,104
2017-06-16T02:57:49.619Z,108
2017-06-16T02:58:15.725Z,112
2017-06-16T02:58:41.820Z,116
2017-06-16T02:59:07.913Z,124
2017-06-16T02:59:34.050Z,124
2017-06-16T03:00:00.148Z,132
2017-06-16T03:00:26.252Z,136
2017-06-16T03:00:52.344Z,140
2017-06-16T03:01:18.439Z,148
2017-06-16T03:01:44.545Z,156
2017-06-16T03:02:10.637Z,164
2017-06-16T03:02:36.725Z,172
2017-06-16T03:03:02.836Z,176
2017-06-16T03:03:28.932Z,184
2017-06-16T03:03:55.024Z,188
2017-06-16T03:04:21.132Z,196
2017-06-16T03:04:47.233Z,200
2017-06-16T03:05:13.347Z,208
2017-06-16T03:05:39.451Z,212
2017-06-16T03:06:05.542Z,216
2017-06-16T03:06:31.707Z,224
2017-06-16T03:06:57.805Z,232
2017-06-16T03:07:23.895Z,236
2017-06-16T03:07:49.999Z,240
2017-06-16T03:08:16.101Z,244
2017-06-16T03:08:42.189Z,252
2017-06-16T03:09:08.293Z,260
2017-06-16T03:09:34.428Z,268
2017-06-16T03:10:00.590Z,280
2017-06-16T03:10:26.714Z,292
2017-06-16T03:10:52.822Z,300
2017-06-16T03:11:18.912Z,312
2017-06-16T03:11:45.014Z,324
2017-06-16T03:12:11.130Z,336
2017-06-16T03:12:37.233Z,344
2017-06-16T03:13:03.340Z,356
2017-06-16T03:13:29.449Z,368
2017-06-16T03:13:55.549Z,376
2017-06-16T03:14:21.656Z,392
2017-06-16T03:14:47.749Z,404
2017-06-16T03:15:13.871Z,412
2017-06-16T03:15:40.004Z,428
2017-06-16T03:16:06.098Z,436
2017-06-16T03:16:32.209Z,448
2017-06-16T03:16:58.314Z,460
2017-06-16T03:17:24.438Z,472
2017-06-16T03:17:50.544Z,484
2017-06-16T03:18:16.635Z,500
2017-06-16T03:18:42.733Z,508
2017-06-16T03:19:08.837Z,524
2017-06-16T03:19:34.938Z,532
2017-06-16T03:20:01.029Z,544
2017-06-16T03:20:27.139Z,556
2017-06-16T03:20:53.265Z,568
2017-06-16T03:21:19.353Z,580
2017-06-16T03:21:45.488Z,592
2017-06-16T03:22:11.587Z,608
2017-06-16T03:22:37.687Z,624
2017-06-16T03:23:03.803Z,640
2017-06-16T03:23:29.920Z,656
2017-06-16T03:23:56.057Z,676
2017-06-16T03:24:22.153Z,696
2017-06-16T03:24:48.269Z,716
2017-06-16T03:25:14.377Z,740
2017-06-16T03:25:40.476Z,764
2017-06-16T03:26:06.567Z,788
2017-06-16T03:26:32.670Z,816
2017-06-16T03:26:58.776Z,848
2017-06-16T03:27:24.862Z,888
2017-06-16T03:27:50.962Z,924
2017-06-16T03:28:17.056Z,956
2017-06-16T03:28:43.189Z,988
2017-06-16T03:29:09.290Z,1008
2017-06-16T03:29:35.406Z,1036
2017-06-16T03:30:01.530Z,1060
2017-06-16T03:30:27.651Z,1084
2017-06-16T03:30:53.739Z,1108
2017-06-16T03:31:19.841Z,1140
2017-06-16T03:31:45.947Z,1176
2017-06-16T03:32:12.038Z,1216
2017-06-16T03:32:38.135Z,1264
2017-06-16T03:33:04.241Z,1300
2017-06-16T03:33:30.337Z,1332
2017-06-16T03:33:56.443Z,1364
2017-06-16T03:34:22.532Z,1392
2017-06-16T03:34:48.633Z,1416
2017-06-16T03:35:14.740Z,1444
2017-06-16T03:35:40.831Z,1472
2017-06-16T03:36:06.952Z,1496
2017-06-16T03:36:33.059Z,1524
2017-06-16T03:36:59.151Z,1556
2017-06-16T03:37:25.241Z,1584
2017-06-16T03:37:51.351Z,1600
2017-06-16T03:38:17.447Z,1624
2017-06-16T03:38:43.563Z,1648
2017-06-16T03:39:09.673Z,1668
2017-06-16T03:39:35.796Z,1704
2017-06-16T03:40:01.888Z,1748
2017-06-16T03:40:27.991Z,1788
2017-06-16T03:40:54.100Z,1824
2017-06-16T03:41:20.189Z,1868
2017-06-16T03:41:46.285Z,1912
2017-06-16T03:42:12.390Z,1960
2017-06-16T03:42:38.480Z,2012
2017-06-16T03:43:04.577Z,2072
2017-06-16T03:43:30.684Z,2128
2017-06-16T03:43:56.803Z,2164
2017-06-16T03:44:22.894Z,2180
2017-06-16T03:44:48.998Z,2180
2017-06-16T03:45:15.098Z,2180
2017-06-16T03:45:41.230Z,2196
2017-06-16T03:46:07.320Z,2224
2017-06-16T03:46:33.473Z,2280
2017-06-16T03:46:59.551Z,2272
2017-06-16T03:47:25.674Z,2248
2017-06-16T03:47:51.764Z,2236
2017-06-16T03:48:17.872Z,2244
2017-06-16T03:48:43.968Z,2256
2017-06-16T03:49:10.056Z,2292
2017-06-16T03:49:36.164Z,2320
2017-06-16T03:50:02.292Z,2312
2017-06-16T03:50:28.391Z,2280
2017-06-16T03:50:54.538Z,2248
2017-06-16T03:51:20.630Z,2208
2017-06-16T03:51:46.766Z,2200
2017-06-16T03:52:12.919Z,2212
2017-06-16T03:52:39.009Z,2228
2017-06-16T03:53:05.140Z,2264
2017-06-16T03:53:31.240Z,2340
2017-06-16T03:53:57.332Z,2412
2017-06-16T03:54:23.462Z,2488
2017-06-16T03:54:49.570Z,2580
2017-06-16T03:55:15.684Z,2640
2017-06-16T03:55:41.784Z,2644
2017-06-16T03:56:07.878Z,2632
2017-06-16T03:56:34.012Z,2616
2017-06-16T03:57:00.167Z,2632
2017-06-16T03:57:26.282Z,2644
2017-06-16T03:57:52.385Z,2672
2017-06-16T03:58:18.491Z,2708
2017-06-16T03:58:44.627Z,2748
2017-06-16T03:59:10.728Z,2788
2017-06-16T03:59:36.835Z,2804
2017-06-16T04:00:02.926Z,2828
2017-06-16T04:00:29.022Z,2864
2017-06-16T04:00:55.129Z,2892
2017-06-16T04:01:21.220Z,2900
2017-06-16T04:01:47.326Z,2932
2017-06-16T04:02:13.440Z,2964
2017-06-16T04:02:39.542Z,2984
2017-06-16T04:03:05.703Z,3008
2017-06-16T04:03:31.793Z,3000
2017-06-16T04:03:57.914Z,2940
2017-06-16T04:04:24.022Z,2908
2017-06-16T04:04:50.122Z,2904
2017-06-16T04:05:16.212Z,2940
2017-06-16T04:05:42.323Z,2976
2017-06-16T04:06:08.420Z,3008
2017-06-16T04:06:34.511Z,3052
2017-06-16T04:07:00.644Z,3096
2017-06-16T04:07:26.738Z,3156
2017-06-16T04:07:52.872Z,3216
2017-06-16T04:08:18.966Z,3224
2017-06-16T04:08:45.057Z,3220
2017-06-16T04:09:11.194Z,3300
2017-06-16T04:09:37.291Z,3436
2017-06-16T04:10:03.381Z,3544
2017-06-16T04:10:29.490Z,3600
2017-06-16T04:10:55.588Z,3672
2017-06-16T04:11:21.679Z,3788
2017-06-16T04:11:47.809Z,3940
2017-06-16T04:12:13.945Z,4064
2017-06-16T04:12:40.061Z,4268
2017-06-16T04:13:06.159Z,4472
2017-06-16T04:13:32.251Z,4704
2017-06-16T04:13:58.357Z,4844
2017-06-16T04:14:24.458Z,4796
2017-06-16T04:14:50.573Z,4788
2017-06-16T04:15:16.676Z,4836
2017-06-16T04:15:42.782Z,4816
2017-06-16T04:16:08.871Z,4824
2017-06-16T04:16:34.971Z,4800
2017-06-16T04:17:01.078Z,4660
2017-06-16T04:17:27.168Z,4580
2017-06-16T04:17:53.279Z,4520
2017-06-16T04:18:19.361Z,4512
2017-06-16T04:18:45.463Z,4608
2017-06-16T04:19:11.573Z,4812
2017-06-16T04:19:37.661Z,5064
2017-06-16T04:20:03.762Z,5408
2017-06-16T04:20:29.869Z,5796
2017-06-16T04:20:55.960Z,6088
2017-06-16T04:21:22.079Z,6140
2017-06-16T04:21:48.185Z,6164
2017-06-16T04:22:14.278Z,6212
2017-06-16T04:22:40.369Z,6016
2017-06-16T04:23:06.480Z,6036
2017-06-16T04:23:32.631Z,6084
2017-06-16T04:23:58.720Z,6136
2017-06-16T04:24:24.850Z,6084
2017-06-16T04:24:50.949Z,5996
2017-06-16T04:25:17.066Z,6156
2017-06-16T04:25:43.168Z,6432
2017-06-16T04:26:09.277Z,6428
2017-06-16T04:26:35.361Z,6192
2017-06-16T04:27:01.461Z,5852
2017-06-16T04:27:27.569Z,5628
2017-06-16T04:27:53.660Z,5480
2017-06-16T04:28:19.759Z,5408
2017-06-16T04:28:45.866Z,5416
2017-06-16T04:29:12.016Z,5424
2017-06-16T04:29:38.125Z,5344
2017-06-16T04:30:04.265Z,5348
2017-06-16T04:30:30.388Z,5472
2017-06-16T04:30:56.495Z,5480
2017-06-16T04:31:22.586Z,5248
2017-06-16T04:31:48.707Z,4920
2017-06-16T04:32:14.840Z,4564
2017-06-16T04:32:40.935Z,4260
2017-06-16T04:33:07.051Z,3980
2017-06-16T04:33:33.163Z,3740
2017-06-16T04:33:59.288Z,3596
2017-06-16T04:34:25.379Z,3496
2017-06-16T04:34:51.488Z,3472
2017-06-16T04:35:17.606Z,3448
2017-06-16T04:35:43.769Z,3424
2017-06-16T04:36:09.887Z,3420
2017-06-16T04:36:36.004Z,3436
2017-06-16T04:37:02.164Z,3520
2017-06-16T04:37:28.261Z,3552
2017-06-16T04:37:54.352Z,3472
2017-06-16T04:38:20.459Z,3304
2017-06-16T04:38:46.558Z,3148
2017-06-16T04:39:12.652Z,3016
2017-06-16T04:39:38.781Z,2900
2017-06-16T04:40:04.890Z,2796
2017-06-16T04:40:30.985Z,2760
2017-06-16T04:40:57.082Z,2740
2017-06-16T04:41:23.197Z,2732
2017-06-16T04:41:49.303Z,2760
2017-06-16T04:42:15.401Z,2832
2017-06-16T04:42:41.492Z,2920
2017-06-16T04:43:07.625Z,3016
2017-06-16T04:43:33.758Z,3088
2017-06-16T04:43:59.847Z,3136
2017-06-16T04:44:25.947Z,3188
2017-06-16T04:44:52.080Z,3256
2017-06-16T04:45:18.170Z,3304
2017-06-16T04:45:44.267Z,3320
2017-06-16T04:46:10.393Z,3292
2017-06-16T04:46:36.496Z,3292
2017-06-16T04:47:02.604Z,3332
2017-06-16T04:47:28.715Z,3456
2017-06-16T04:47:54.841Z,3676
2017-06-16T04:48:21.001Z,3912
2017-06-16T04:48:47.094Z,4108
2017-06-16T04:49:13.191Z,4316
2017-06-16T04:49:39.297Z,4572
2017-06-16T04:50:05.389Z,4852
2017-06-16T04:50:31.479Z,5120
2017-06-16T04:50:57.589Z,5384
2017-06-16T04:51:23.684Z,5600
2017-06-16T04:51:49.788Z,5868
2017-06-16T04:52:15.878Z,6124
2017-06-16T04:52:41.974Z,6368
2017-06-16T04:53:08.081Z,6548
2017-06-16T04:53:34.182Z,6684
2017-06-16T04:54:00.291Z,6888
2017-06-16T04:54:26.402Z,7184
2017-06-16T04:54:52.528Z,7576
2017-06-16T04:55:18.639Z,10804
2017-06-16T04:55:44.725Z,8136
2017-06-16T04:56:10.825Z,7804
2017-06-16T04:56:36.915Z,10076
2017-06-16T04:57:03.022Z,7764
2017-06-16T04:57:29.114Z,7656
2017-06-16T04:57:55.252Z,7532
2017-06-16T04:58:21.349Z,7444
2017-06-16T04:58:47.464Z,7388
2017-06-16T04:59:13.573Z,7408
2017-06-16T04:59:39.673Z,7672
2017-06-16T05:00:05.786Z,8440
2017-06-16T05:00:31.915Z,7584
2017-06-16T05:00:58.024Z,7804
2017-06-16T05:01:24.137Z,8992
2017-06-16T05:01:50.257Z,23680
2017-06-16T05:02:16.371Z,30208
2017-06-16T05:02:42.463Z,29120
2017-06-16T05:03:08.567Z,28256
2017-06-16T05:03:34.657Z,24640
2017-06-16T05:04:00.815Z,16768
2017-06-16T05:04:26.976Z,23328
2017-06-16T05:04:53.034Z,14132
2017-06-16T05:05:19.158Z,17312
2017-06-16T05:05:45.265Z,30208
2017-06-16T05:06:11.356Z,23456
2017-06-16T05:06:37.450Z,15824
2017-06-16T05:07:03.557Z,11956
2017-06-16T05:07:29.652Z,13428
2017-06-16T05:07:55.743Z,12800
2017-06-16T05:08:21.881Z,17344
2017-06-16T05:08:47.979Z,24032
2017-06-16T05:09:14.069Z,20864
2017-06-16T05:09:40.177Z,32608
2017-06-16T05:10:06.278Z,31136
2017-06-16T05:10:32.395Z,34656
2017-06-16T05:10:58.501Z,30080
2017-06-16T05:11:24.609Z,28800
2017-06-16T05:11:50.699Z,10500
2017-06-16T05:12:16.799Z,9992
2017-06-16T05:12:42.931Z,9752
2017-06-16T05:13:09.024Z,9316
2017-06-16T05:13:35.147Z,8668
2017-06-16T05:14:01.274Z,7896
2017-06-16T05:14:27.380Z,7352
2017-06-16T05:14:53.517Z,7448
2017-06-16T05:15:19.603Z,7508
2017-06-16T05:15:45.706Z,7896
2017-06-16T05:16:11.812Z,8988
2017-06-16T05:16:37.928Z,9644
2017-06-16T05:17:04.026Z,10312
2017-06-16T05:17:30.162Z,10576
2017-06-16T05:17:56.260Z,10504
2017-06-16T05:18:22.351Z,10208
2017-06-16T05:18:48.489Z,9964
2017-06-16T05:19:14.586Z,9708
2017-06-16T05:19:40.714Z,9456
2017-06-16T05:20:06.831Z,9248
2017-06-16T05:20:32.955Z,9044
2017-06-16T05:20:59.062Z,8884
2017-06-16T05:21:25.158Z,8704
2017-06-16T05:21:51.251Z,8516
2017-06-16T05:22:17.359Z,8348
2017-06-16T05:22:43.457Z,8228
2017-06-16T05:23:09.597Z,8128
2017-06-16T05:23:35.705Z,8044
2017-06-16T05:24:01.835Z,7972
2017-06-16T05:24:27.936Z,7932
2017-06-16T05:24:54.060Z,7816
2017-06-16T05:25:20.151Z,7684
2017-06-16T05:25:46.262Z,7528
2017-06-16T05:26:12.388Z,7412
2017-06-16T05:26:38.478Z,7332
2017-06-16T05:27:04.613Z,7276
2017-06-16T05:27:30.712Z,7192
2017-06-16T05:27:56.832Z,7108
2017-06-16T05:28:22.957Z,7000
2017-06-16T05:28:49.093Z,6836
2017-06-16T05:29:15.182Z,6656
2017-06-16T05:29:41.282Z,6448
2017-06-16T05:30:07.388Z,6248
2017-06-16T05:30:33.480Z,6084
2017-06-16T05:30:59.614Z,5980
2017-06-16T05:31:25.753Z,6004
2017-06-16T05:31:51.880Z,6076
2017-06-16T05:32:17.986Z,6204
2017-06-16T05:32:44.075Z,6360
2017-06-16T05:33:10.175Z,6552
2017-06-16T05:33:36.284Z,6756
2017-06-16T05:34:02.377Z,6960
2017-06-16T05:34:28.474Z,7140
2017-06-16T05:34:54.582Z,7296
2017-06-16T05:35:20.677Z,7480
2017-06-16T05:35:46.770Z,7652
2017-06-16T05:36:12.871Z,7840
2017-06-16T05:36:38.973Z,8004
2017-06-16T05:37:05.078Z,8180
2017-06-16T05:37:31.197Z,8408
2017-06-16T05:37:57.294Z,8684
2017-06-16T05:38:23.401Z,8996
2017-06-16T05:38:49.495Z,9328
2017-06-16T05:39:15.587Z,9676
2017-06-16T05:39:41.698Z,10036
2017-06-16T05:40:07.796Z,10272
2017-06-16T05:40:33.911Z,10412
2017-06-16T05:41:00.016Z,10484
2017-06-16T05:41:26.142Z,10536
2017-06-16T05:41:52.243Z,10608
2017-06-16T05:42:18.338Z,10544
2017-06-16T05:42:44.429Z,10444
2017-06-16T05:43:10.541Z,10308
2017-06-16T05:43:36.668Z,10204
2017-06-16T05:44:02.784Z,10124
2017-06-16T05:44:28.916Z,10120
2017-06-16T05:44:55.024Z,10204
2017-06-16T05:45:21.125Z,10288
2017-06-16T05:45:47.246Z,10464
2017-06-16T05:46:13.352Z,10608
2017-06-16T05:46:39.442Z,10744
2017-06-16T05:47:05.569Z,10976
2017-06-16T05:47:31.689Z,11352
2017-06-16T05:47:57.796Z,11672
2017-06-16T05:48:23.922Z,12040
2017-06-16T05:48:50.052Z,12456
2017-06-16T05:49:16.168Z,12876
2017-06-16T05:49:42.276Z,13228
2017-06-16T05:50:08.363Z,13500
2017-06-16T05:50:34.462Z,13704
2017-06-16T05:51:00.597Z,14012
2017-06-16T05:51:26.689Z,14364
2017-06-16T05:51:52.787Z,14664
2017-06-16T05:52:18.893Z,14912
2017-06-16T05:52:45.017Z,15040
2017-06-16T05:53:11.134Z,15208
2017-06-16T05:53:37.246Z,15740
2017-06-16T05:54:03.372Z,16352
2017-06-16T05:54:29.462Z,15440
2017-06-16T05:54:55.622Z,15144
2017-06-16T05:55:21.752Z,15068
2017-06-16T05:55:47.847Z,15152
2017-06-16T05:56:13.949Z,15244
2017-06-16T05:56:40.057Z,15440
2017-06-16T05:57:06.145Z,15576
2017-06-16T05:57:32.248Z,15824
2017-06-16T05:57:58.349Z,16132
2017-06-16T05:58:24.465Z,16428
2017-06-16T05:58:50.570Z,16688
2017-06-16T05:59:16.685Z,16960
2017-06-16T05:59:42.818Z,17088
2017-06-16T06:00:08.954Z,17216
2017-06-16T06:00:35.041Z,17184
2017-06-16T06:01:01.142Z,17152
2017-06-16T06:01:27.277Z,17056
2017-06-16T06:01:53.395Z,16784
2017-06-16T06:02:19.517Z,16568
2017-06-16T06:02:45.625Z,16168
2017-06-16T06:03:11.719Z,15796
2017-06-16T06:03:37.813Z,15492
2017-06-16T06:04:03.918Z,15344
2017-06-16T06:04:30.021Z,15340